createdAt,value
2023-02-11T00:00:39.897Z,102657.84
2023-02-11T00:03:06.976Z,102641.81
2023-02-11T00:05:34.088Z,102653.47
2023-02-11T00:08:00.831Z,102658.81
2023-02-11T00:10:27.560Z,102662.31
2023-02-11T00:12:54.351Z,102672.19
2023-02-11T00:15:23.069Z,102683.69
2023-02-11T00:17:49.781Z,102686.31
2023-02-11T00:20:16.612Z,102684.41
2023-02-11T00:22:43.419Z,102668.31
2023-02-11T00:25:10.272Z,102664.63
2023-02-11T00:27:37.198Z,102658.31
2023-02-11T00:30:04.476Z,102639.44
2023-02-11T00:32:32.720Z,102628.63
2023-02-11T00:34:59.447Z,102620.47
2023-02-11T00:37:26.158Z,102626.56
2023-02-11T00:39:52.894Z,102641.63
2023-02-11T00:42:19.596Z,102645.03
2023-02-11T00:44:46.288Z,102650.28
2023-02-11T00:47:12.972Z,102653.75
2023-02-11T00:49:41.034Z,102663.47
2023-02-11T00:52:07.699Z,102662.47
2023-02-11T00:54:34.536Z,102659.72
2023-02-11T00:57:01.261Z,102654.25
2023-02-11T00:59:28.254Z,102643.38
2023-02-11T01:01:55.005Z,102632.63
2023-02-11T01:04:21.742Z,102627.22
2023-02-11T01:06:49.811Z,102622.66
2023-02-11T01:09:16.522Z,102608.34
2023-02-11T01:11:43.477Z,102606.53
2023-02-11T01:14:10.102Z,102592.22
2023-02-11T01:16:36.845Z,102596.56
2023-02-11T01:19:03.715Z,102596.56
2023-02-11T01:21:30.523Z,102603.66
2023-02-11T01:23:58.540Z,102595.63
2023-02-11T01:26:25.256Z,102594.69
2023-02-11T01:28:51.981Z,102594.63
2023-02-11T01:31:18.743Z,102607.13
2023-02-11T01:33:45.664Z,102582.97
2023-02-11T01:36:12.669Z,102579.38
2023-02-11T01:38:39.463Z,102569.53
2023-02-11T01:41:10.933Z,102568.56
2023-02-11T01:43:39.658Z,102565.88
2023-02-11T01:46:31.738Z,102560.47
2023-02-11T01:49:04.651Z,102555.94
2023-02-11T01:51:36.124Z,102554.09
2023-02-11T01:54:04.455Z,102546.06
2023-02-11T01:56:35.210Z,102548.75
2023-02-11T01:59:07.623Z,102538.84
2023-02-11T02:01:35.296Z,102537.09
2023-02-11T02:04:05.020Z,102538.91
2023-02-11T02:06:35.568Z,102537.97
2023-02-11T02:09:06.746Z,102532.56
2023-02-11T02:11:35.069Z,102526.28
2023-02-11T02:14:01.863Z,102521.84
2023-02-11T02:16:31.949Z,102525.31
2023-02-11T02:19:22.519Z,102516.34
2023-02-11T02:22:15.091Z,102527.88
2023-02-11T02:24:59.465Z,102538.59
2023-02-11T02:27:53.659Z,102543.84
2023-02-11T02:30:46.340Z,102537.63
2023-02-11T02:33:33.796Z,102536.69
2023-02-11T02:36:09.331Z,102544.66
2023-02-11T02:38:41.616Z,102532.22
2023-02-11T02:41:11.749Z,102538.44
2023-02-11T02:43:43.111Z,102526.78
2023-02-11T02:46:14.861Z,102501.72
2023-02-11T02:48:43.492Z,102503.56
2023-02-11T02:51:27.721Z,102502.59
2023-02-11T02:54:07.851Z,102502.59
2023-02-11T02:56:44.643Z,102503.41
2023-02-11T02:59:33.015Z,102495.44
2023-02-11T03:02:08.803Z,102491.81
2023-02-11T03:04:43.509Z,102496.16
2023-02-11T03:07:20.734Z,102485.38
2023-02-11T03:09:57.614Z,102480.84
2023-02-11T03:12:27.651Z,102488.88
2023-02-11T03:14:54.527Z,102482.56
2023-02-11T03:17:23.615Z,102485.22
2023-02-11T03:19:52.044Z,102484.34
2023-02-11T03:22:22.965Z,102483.44
2023-02-11T03:24:50.004Z,102482.56
2023-02-11T03:27:21.932Z,102495.00
2023-02-11T03:29:54.589Z,102494.09
2023-02-11T03:32:27.147Z,102486.81
2023-02-11T03:34:59.163Z,102476.94
2023-02-11T03:37:30.699Z,102482.28
2023-02-11T03:40:01.736Z,102467.09
2023-02-11T03:42:33.037Z,102468.81
2023-02-11T03:45:04.505Z,102475.06
2023-02-11T03:47:35.868Z,102472.38
2023-02-11T03:50:07.669Z,102475.06
2023-02-11T03:52:35.574Z,102481.25
2023-02-11T03:55:05.921Z,102483.88
2023-02-11T03:57:32.701Z,102480.25
2023-02-11T03:59:59.646Z,102487.38
2023-02-11T04:02:31.397Z,102483.72
2023-02-11T04:04:58.372Z,102479.22
2023-02-11T04:07:26.848Z,102489.88
2023-02-11T04:09:53.862Z,102479.09
2023-02-11T04:12:20.897Z,102480.91
2023-02-11T04:14:47.579Z,102485.25
2023-02-11T04:17:14.494Z,102488.81
2023-02-11T04:19:41.362Z,102488.75
2023-02-11T04:22:08.499Z,102486.91
2023-02-11T04:24:36.702Z,102490.38
2023-02-11T04:27:04.465Z,102482.34
2023-02-11T04:29:31.202Z,102474.25
2023-02-11T04:31:58.266Z,102477.81
2023-02-11T04:34:25.070Z,102475.97
2023-02-11T04:36:51.788Z,102475.84
2023-02-11T04:39:18.620Z,102478.53
2023-02-11T04:41:46.742Z,102465.03
2023-02-11T04:44:13.873Z,102462.34
2023-02-11T04:46:40.824Z,102451.63
2023-02-11T04:49:07.595Z,102450.69
2023-02-11T04:51:34.292Z,102457.78
2023-02-11T04:54:01.013Z,102458.66
2023-02-11T04:56:27.649Z,102459.53
2023-02-11T04:58:55.746Z,102441.72
2023-02-11T05:01:22.961Z,102438.09
2023-02-11T05:03:49.831Z,102438.09
2023-02-11T05:06:17.127Z,102446.91
2023-02-11T05:08:43.839Z,102437.13
2023-02-11T05:11:16.115Z,102432.56
2023-02-11T05:13:42.874Z,102432.56
2023-02-11T05:16:11.302Z,102423.59
2023-02-11T05:18:38.345Z,102425.47
2023-02-11T05:21:06.867Z,102424.53
2023-02-11T05:23:33.752Z,102420.13
2023-02-11T05:26:00.582Z,102420.13
2023-02-11T05:28:27.318Z,102418.31
2023-02-11T05:30:54.127Z,102414.69
2023-02-11T05:33:22.792Z,102412.88
2023-02-11T05:35:49.905Z,102411.13
2023-02-11T05:38:17.350Z,102403.97
2023-02-11T05:40:44.913Z,102395.00
2023-02-11T05:43:11.706Z,102397.66
2023-02-11T05:45:38.417Z,102396.81
2023-02-11T05:48:05.598Z,102398.53
2023-02-11T05:50:33.688Z,102392.31
2023-02-11T05:53:00.467Z,102409.25
2023-02-11T05:55:27.567Z,102410.97
2023-02-11T05:57:54.215Z,102397.56
2023-02-11T06:00:20.992Z,102394.81
2023-02-11T06:02:47.894Z,102401.06
2023-02-11T06:05:14.674Z,102407.34
2023-02-11T06:07:43.013Z,102410.03
2023-02-11T06:10:10.793Z,102407.34
2023-02-11T06:12:38.471Z,102408.16
2023-02-11T06:15:06.268Z,102412.66
2023-02-11T06:17:33.535Z,102420.59
2023-02-11T06:20:01.224Z,102416.03
2023-02-11T06:22:27.890Z,102413.31
2023-02-11T06:25:01.653Z,102402.47
2023-02-11T06:27:28.872Z,102391.69
2023-02-11T06:29:55.861Z,102395.16
2023-02-11T06:32:42.317Z,102387.03
2023-02-11T06:35:11.785Z,102376.16
2023-02-11T06:37:39.109Z,102360.88
2023-02-11T06:40:08.033Z,102361.63
2023-02-11T06:42:34.696Z,102359.75
2023-02-11T06:45:01.426Z,102362.28
2023-02-11T06:47:28.285Z,102363.94
2023-02-11T06:49:55.006Z,102369.16
2023-02-11T06:52:21.706Z,102377.03
2023-02-11T06:54:48.449Z,102379.63
2023-02-11T06:57:16.595Z,102380.34
2023-02-11T06:59:43.379Z,102384.69
2023-02-11T07:02:10.454Z,102379.22
2023-02-11T07:04:37.271Z,102383.59
2023-02-11T07:07:04.019Z,102370.00
2023-02-11T07:09:30.689Z,102385.00
2023-02-11T07:11:57.448Z,102381.28
2023-02-11T07:14:25.593Z,102366.84
2023-02-11T07:16:52.293Z,102372.03
2023-02-11T07:19:19.507Z,102367.47
2023-02-11T07:21:46.220Z,102366.38
2023-02-11T07:24:13.147Z,102360.81
2023-02-11T07:26:40.518Z,102365.94
2023-02-11T07:29:07.300Z,102358.59
2023-02-11T07:31:35.525Z,102354.91
2023-02-11T07:34:02.894Z,102344.84
2023-02-11T07:36:31.360Z,102342.00
2023-02-11T07:38:58.235Z,102347.19
2023-02-11T07:41:26.122Z,102359.50
2023-02-11T07:43:53.353Z,102354.84
2023-02-11T07:46:21.696Z,102353.81
2023-02-11T07:48:50.267Z,102363.50
2023-02-11T07:51:18.791Z,102358.94
2023-02-11T07:53:46.688Z,102366.91
2023-02-11T07:56:15.467Z,102375.72
2023-02-11T07:58:42.687Z,102367.59
2023-02-11T08:01:11.599Z,102370.22
2023-02-11T08:03:38.815Z,102362.16
2023-02-11T08:06:08.840Z,102363.00
2023-02-11T08:08:35.562Z,102362.91
2023-02-11T08:11:06.964Z,102373.63
2023-02-11T08:13:33.879Z,102373.53
2023-02-11T08:16:00.852Z,102374.31
2023-02-11T08:18:27.644Z,102382.31
2023-02-11T08:20:54.363Z,102388.50
2023-02-11T08:23:22.782Z,102394.69
2023-02-11T08:25:49.473Z,102394.69
2023-02-11T08:28:16.191Z,102391.06
2023-02-11T08:30:43.083Z,102387.50
2023-02-11T08:33:09.826Z,102397.28
2023-02-11T08:35:36.712Z,102401.69
2023-02-11T08:38:03.469Z,102406.19
2023-02-11T08:40:31.516Z,102405.34
2023-02-11T08:42:58.203Z,102412.53
2023-02-11T08:45:25.187Z,102415.22
2023-02-11T08:47:52.263Z,102414.25
2023-02-11T08:50:19.338Z,102393.75
2023-02-11T08:52:46.075Z,102393.75
2023-02-11T08:55:12.756Z,102390.06
2023-02-11T08:57:40.917Z,102380.19
2023-02-11T09:00:08.888Z,102371.28
2023-02-11T09:02:35.667Z,102377.44
2023-02-11T09:05:02.318Z,102381.94
2023-02-11T09:07:29.082Z,102387.25
2023-02-11T09:09:55.939Z,102385.44
2023-02-11T09:12:22.694Z,102385.44
2023-02-11T09:14:50.934Z,102393.38
2023-02-11T09:17:17.613Z,102411.25
2023-02-11T09:19:44.373Z,102408.47
2023-02-11T09:22:11.046Z,102397.75
2023-02-11T09:24:37.763Z,102415.59
2023-02-11T09:27:05.461Z,102420.97
2023-02-11T09:29:32.277Z,102428.91
2023-02-11T09:32:00.774Z,102427.03
2023-02-11T09:34:27.521Z,102423.28
2023-02-11T09:36:54.151Z,102407.09
2023-02-11T09:39:20.965Z,102398.09
2023-02-11T09:42:20.363Z,102402.41
2023-02-11T09:44:47.876Z,102410.41
2023-02-11T09:47:25.570Z,102416.56
2023-02-11T09:49:57.362Z,102417.34
2023-02-11T09:52:33.167Z,102429.66
2023-02-11T09:55:02.402Z,102435.66
2023-02-11T09:57:32.952Z,102440.78
2023-02-11T10:00:00.573Z,102452.28
2023-02-11T10:02:40.007Z,102452.97
2023-02-11T10:05:35.202Z,102459.91
2023-02-11T10:08:08.741Z,102460.72
2023-02-11T10:10:47.761Z,102460.63
2023-02-11T10:13:35.834Z,102450.56
2023-02-11T10:16:14.100Z,102454.03
2023-02-11T10:18:54.049Z,102443.19
2023-02-11T10:21:29.825Z,102452.03
2023-02-11T10:24:00.827Z,102449.25
2023-02-11T10:26:30.427Z,102454.44
2023-02-11T10:29:01.841Z,102451.69
2023-02-11T10:31:38.230Z,102451.69
2023-02-11T10:34:09.831Z,102453.44
2023-02-11T10:36:38.466Z,102451.50
2023-02-11T10:39:12.096Z,102447.88
2023-02-11T10:41:44.269Z,102431.66
2023-02-11T10:44:21.827Z,102421.66
2023-02-11T10:46:50.064Z,102431.41
2023-02-11T10:49:35.310Z,102437.66
2023-02-11T10:52:22.771Z,102454.63
2023-02-11T10:55:01.920Z,102460.88
2023-02-11T10:57:32.793Z,102459.84
2023-02-11T11:00:02.862Z,102457.03
2023-02-11T11:02:32.101Z,102453.41
2023-02-11T11:05:03.035Z,102444.38
2023-02-11T11:07:31.365Z,102433.63
2023-02-11T11:10:01.836Z,102437.19
2023-02-11T11:12:36.306Z,102429.13
2023-02-11T11:15:15.636Z,102434.41
2023-02-11T11:17:42.862Z,102420.94
2023-02-11T11:20:21.879Z,102426.31
2023-02-11T11:22:49.678Z,102429.81
2023-02-11T11:25:28.109Z,102428.00
2023-02-11T11:27:58.188Z,102435.97
2023-02-11T11:30:31.604Z,102434.13
2023-02-11T11:32:58.646Z,102440.38
2023-02-11T11:35:28.486Z,102424.16
2023-02-11T11:38:01.981Z,102434.84
2023-02-11T11:40:31.048Z,102422.25
2023-02-11T11:43:07.128Z,102428.41
2023-02-11T11:45:34.078Z,102433.59
2023-02-11T11:48:06.323Z,102436.22
2023-02-11T11:50:37.244Z,102440.63
2023-02-11T11:53:11.196Z,102427.06
2023-02-11T11:55:42.153Z,102420.75
2023-02-11T11:58:15.556Z,102425.09
2023-02-11T12:00:47.755Z,102420.59
2023-02-11T12:03:46.518Z,102414.16
2023-02-11T12:06:29.283Z,102415.69
2023-02-11T12:09:09.548Z,102404.75
2023-02-11T12:11:52.418Z,102408.09
2023-02-11T12:14:28.501Z,102413.41
2023-02-11T12:17:02.889Z,102413.41
2023-02-11T12:19:56.682Z,102417.75
2023-02-11T12:22:38.878Z,102419.47
2023-02-11T12:25:27.365Z,102419.38
2023-02-11T12:28:07.579Z,102415.63
2023-02-11T12:31:00.502Z,102416.41
2023-02-11T12:33:44.978Z,102427.09
2023-02-11T12:36:22.524Z,102429.69
2023-02-11T12:39:07.156Z,102428.66
2023-02-11T12:41:56.570Z,102426.72
2023-02-11T12:44:33.025Z,102445.38
2023-02-11T12:47:09.470Z,102438.16
2023-02-11T12:49:54.975Z,102438.09
2023-02-11T12:52:34.276Z,102429.06
2023-02-11T12:55:09.384Z,102422.59
2023-02-11T12:57:39.374Z,102420.78
2023-02-11T13:00:13.698Z,102414.38
2023-02-11T13:02:48.535Z,102412.44
2023-02-11T13:05:25.614Z,102422.25
2023-02-11T13:07:56.139Z,102427.50
2023-02-11T13:10:30.034Z,102423.00
2023-02-11T13:12:59.124Z,102425.63
2023-02-11T13:15:26.589Z,102424.66
2023-02-11T13:18:00.837Z,102423.78
2023-02-11T13:20:35.972Z,102433.50
2023-02-11T13:23:11.310Z,102436.19
2023-02-11T13:25:46.578Z,102436.19
2023-02-11T13:28:32.541Z,102442.44
2023-02-11T13:31:00.588Z,102451.47
2023-02-11T13:33:32.599Z,102449.56
2023-02-11T13:36:23.537Z,102452.19
2023-02-11T13:39:19.809Z,102446.78
2023-02-11T13:41:50.309Z,102453.03
2023-02-11T13:44:26.158Z,102464.66
2023-02-11T13:46:59.777Z,102459.28
2023-02-11T13:49:32.772Z,102469.97
2023-02-11T13:52:02.279Z,102463.72
2023-02-11T13:54:33.693Z,102467.28
2023-02-11T13:57:33.225Z,102475.34
2023-02-11T14:00:01.929Z,102484.31
2023-02-11T14:02:34.440Z,102478.91
2023-02-11T14:05:22.353Z,102482.47
2023-02-11T14:08:21.615Z,102480.66
2023-02-11T14:10:50.126Z,102472.56
2023-02-11T14:13:24.714Z,102476.16
2023-02-11T14:16:04.878Z,102480.66
2023-02-11T14:19:00.557Z,102483.34
2023-02-11T14:21:34.323Z,102483.34
2023-02-11T14:24:38.582Z,102483.25
2023-02-11T14:27:07.250Z,102488.63
2023-02-11T14:29:43.720Z,102482.28
2023-02-11T14:32:23.355Z,102483.25
2023-02-11T14:35:00.772Z,102493.16
2023-02-11T14:37:39.261Z,102502.22
2023-02-11T14:40:17.209Z,102488.81
2023-02-11T14:42:44.951Z,102488.81
2023-02-11T14:45:19.877Z,102496.03
2023-02-11T14:47:52.149Z,102496.97
2023-02-11T14:50:24.369Z,102500.66
2023-02-11T14:52:52.129Z,102493.53
2023-02-11T14:55:29.980Z,102497.19
2023-02-11T14:58:15.407Z,102490.84
2023-02-11T15:00:55.904Z,102496.31
2023-02-11T15:03:28.267Z,102509.00
2023-02-11T15:05:57.856Z,102511.72
2023-02-11T15:08:24.684Z,102525.16
2023-02-11T15:10:54.538Z,102521.69
2023-02-11T15:13:24.565Z,102535.06
2023-02-11T15:15:57.758Z,102536.03
2023-02-11T15:18:32.660Z,102537.84
2023-02-11T15:20:59.878Z,102536.97
2023-02-11T15:23:29.483Z,102545.06
2023-02-11T15:25:56.374Z,102548.63
2023-02-11T15:28:25.168Z,102546.00
2023-02-11T15:31:02.346Z,102546.88
2023-02-11T15:33:29.770Z,102532.53
2023-02-11T15:35:58.088Z,102534.41
2023-02-11T15:38:24.897Z,102541.59
2023-02-11T15:40:54.117Z,102552.38
2023-02-11T15:43:21.110Z,102552.38
2023-02-11T15:45:58.721Z,102551.38
2023-02-11T15:48:35.550Z,102557.75
2023-02-11T15:51:08.748Z,102563.16
2023-02-11T15:53:39.676Z,102560.44
2023-02-11T15:56:14.456Z,102546.00
2023-02-11T15:58:43.787Z,102554.19
2023-02-11T16:01:11.742Z,102557.75
2023-02-11T16:03:42.167Z,102554.09
2023-02-11T16:06:20.871Z,102556.78
2023-02-11T16:08:59.386Z,102559.47
2023-02-11T16:11:29.291Z,102558.53
2023-02-11T16:13:56.357Z,102560.34
2023-02-11T16:16:26.152Z,102563.91
2023-02-11T16:19:04.605Z,102568.41
2023-02-11T16:21:34.414Z,102571.97
2023-02-11T16:24:02.079Z,102584.56
2023-02-11T16:26:32.651Z,102590.84
2023-02-11T16:29:07.789Z,102587.38
2023-02-11T16:31:37.611Z,102582.88
2023-02-11T16:34:13.400Z,102573.91
2023-02-11T16:36:41.870Z,102571.31
2023-02-11T16:39:08.817Z,102591.91
2023-02-11T16:41:35.803Z,102580.25
2023-02-11T16:44:02.772Z,102591.91
2023-02-11T16:46:30.682Z,102592.78
2023-02-11T16:48:58.881Z,102600.84
2023-02-11T16:51:27.305Z,102610.63
2023-02-11T16:53:54.338Z,102607.09
2023-02-11T16:56:21.112Z,102607.09
2023-02-11T16:58:47.880Z,102610.63
2023-02-11T17:01:14.816Z,102616.03
2023-02-11T17:03:41.678Z,102613.31
2023-02-11T17:06:10.479Z,102617.75
2023-02-11T17:08:38.595Z,102628.53
2023-02-11T17:11:05.706Z,102636.63
2023-02-11T17:13:33.001Z,102643.75
2023-02-11T17:15:59.812Z,102643.75
2023-02-11T17:18:26.617Z,102638.28
2023-02-11T17:20:53.421Z,102639.16
2023-02-11T17:23:20.156Z,102651.63
2023-02-11T17:25:55.347Z,102648.00
2023-02-11T17:28:22.130Z,102654.19
2023-02-11T17:30:48.899Z,102654.19
2023-02-11T17:33:15.688Z,102655.13
2023-02-11T17:35:42.382Z,102667.66
2023-02-11T17:38:09.244Z,102668.50
2023-02-11T17:40:36.094Z,102668.50
2023-02-11T17:43:04.601Z,102672.06
2023-02-11T17:45:31.493Z,102673.88
2023-02-11T17:47:58.463Z,102674.75
2023-02-11T17:50:27.095Z,102677.44
2023-02-11T17:52:55.636Z,102679.19
2023-02-11T17:55:22.428Z,102677.44
2023-02-11T17:57:49.277Z,102681.94
2023-02-11T18:00:18.581Z,102684.75
2023-02-11T18:02:45.328Z,102684.66
2023-02-11T18:05:12.171Z,102688.13
2023-02-11T18:07:39.125Z,102693.53
2023-02-11T18:10:07.248Z,102693.53
2023-02-11T18:12:34.230Z,102700.66
2023-02-11T18:15:01.089Z,102698.91
2023-02-11T18:17:29.528Z,102696.28
2023-02-11T18:19:57.029Z,102698.03
2023-02-11T18:22:24.954Z,102702.56
2023-02-11T18:24:52.361Z,102706.13
2023-02-11T18:27:19.192Z,102706.19
2023-02-11T18:29:46.035Z,102706.19
2023-02-11T18:32:13.453Z,102721.50
2023-02-11T18:34:42.217Z,102726.91
2023-02-11T18:37:08.994Z,102738.50
2023-02-11T18:39:35.815Z,102751.91
2023-02-11T18:42:02.837Z,102746.53
2023-02-11T18:44:30.133Z,102758.16
2023-02-11T18:46:57.342Z,102760.78
2023-02-11T18:49:24.328Z,102758.09
2023-02-11T18:51:52.586Z,102764.34
2023-02-11T18:54:19.531Z,102779.66
2023-02-11T18:56:46.430Z,102766.19
2023-02-11T18:59:13.250Z,102763.47
2023-02-11T19:01:40.195Z,102764.34
2023-02-11T19:04:07.143Z,102766.19
2023-02-11T19:06:35.532Z,102771.56
2023-02-11T19:09:06.974Z,102770.69
2023-02-11T19:11:34.242Z,102780.59
2023-02-11T19:14:04.469Z,102788.66
2023-02-11T19:16:31.714Z,102796.69
2023-02-11T19:18:58.520Z,102798.50
2023-02-11T19:21:25.351Z,102794.94
2023-02-11T19:23:52.187Z,102792.25
2023-02-11T19:26:23.892Z,102789.53
2023-02-11T19:28:50.646Z,102795.00
2023-02-11T19:31:17.636Z,102799.53
2023-02-11T19:33:45.148Z,102797.69
2023-02-11T19:36:12.038Z,102798.66
2023-02-11T19:38:38.877Z,102803.16
2023-02-11T19:41:06.061Z,102805.84
2023-02-11T19:43:34.357Z,102815.00
2023-02-11T19:46:01.918Z,102813.25
2023-02-11T19:48:28.643Z,102820.38
2023-02-11T19:50:55.578Z,102813.25
2023-02-11T19:53:22.670Z,102814.22
2023-02-11T19:55:50.397Z,102821.44
2023-02-11T19:58:17.697Z,102821.44
2023-02-11T20:00:45.774Z,102820.56
2023-02-11T20:03:12.379Z,102826.88
2023-02-11T20:05:40.372Z,102824.19
2023-02-11T20:08:07.118Z,102827.81
2023-02-11T20:10:34.727Z,102824.25
2023-02-11T20:13:01.414Z,102837.72
2023-02-11T20:15:28.159Z,102837.72
2023-02-11T20:17:56.360Z,102835.03
2023-02-11T20:20:23.047Z,102839.53
2023-02-11T20:22:51.477Z,102849.47
2023-02-11T20:25:18.229Z,102856.69
2023-02-11T20:27:44.874Z,102859.38
2023-02-11T20:30:12.226Z,102862.06
2023-02-11T20:32:39.013Z,102859.38
2023-02-11T20:35:08.885Z,102857.56
2023-02-11T20:37:35.671Z,102864.75
2023-02-11T20:40:03.194Z,102875.59
2023-02-11T20:42:29.888Z,102869.34
2023-02-11T20:44:56.598Z,102873.84
2023-02-11T20:47:23.439Z,102869.34
2023-02-11T20:49:50.406Z,102869.44
2023-02-11T20:52:18.618Z,102871.28
2023-02-11T20:54:45.276Z,102871.34
2023-02-11T20:57:12.016Z,102874.09
2023-02-11T20:59:38.705Z,102881.31
2023-02-11T21:02:05.524Z,102881.31
2023-02-11T21:04:32.278Z,102886.69
2023-02-11T21:07:01.074Z,102885.84
2023-02-11T21:09:32.504Z,102890.44
2023-02-11T21:11:59.659Z,102897.63
2023-02-11T21:14:28.965Z,102893.19
2023-02-11T21:16:55.794Z,102895.13
2023-02-11T21:19:22.560Z,102901.44
2023-02-11T21:21:49.664Z,102904.13
2023-02-11T21:24:16.464Z,102903.25
2023-02-11T21:26:44.678Z,102913.16
2023-02-11T21:29:11.720Z,102920.34
2023-02-11T21:31:38.854Z,102919.53
2023-02-11T21:34:06.817Z,102934.81
2023-02-11T21:36:33.866Z,102939.22
2023-02-11T21:39:00.622Z,102928.53
2023-02-11T21:41:27.797Z,102942.06
2023-02-11T21:43:57.668Z,102951.97
2023-02-11T21:46:24.784Z,102949.28
2023-02-11T21:48:51.627Z,102942.13
2023-02-11T21:51:21.992Z,102950.16
2023-02-11T21:53:52.985Z,102960.13
2023-02-11T21:56:19.856Z,102948.56
2023-02-11T21:58:46.716Z,102958.38
2023-02-11T22:01:17.227Z,102960.28
2023-02-11T22:03:45.423Z,102963.94
2023-02-11T22:06:14.536Z,102969.38
2023-02-11T22:08:41.830Z,102966.75
2023-02-11T22:11:11.392Z,102969.47
2023-02-11T22:13:38.346Z,102973.97
2023-02-11T22:16:07.652Z,102973.09
2023-02-11T22:18:36.677Z,102986.66
2023-02-11T22:21:05.991Z,102987.59
2023-02-11T22:23:33.002Z,102989.41
2023-02-11T22:26:04.104Z,102994.78
2023-02-11T22:28:30.859Z,103002.88
2023-02-11T22:30:58.871Z,103003.81
2023-02-11T22:33:27.018Z,103011.88
2023-02-11T22:35:59.930Z,103009.19
2023-02-11T22:38:27.921Z,103012.84
2023-02-11T22:40:54.947Z,103016.38
2023-02-11T22:43:21.713Z,103015.53
2023-02-11T22:45:49.289Z,103020.94
2023-02-11T22:48:16.292Z,103019.19
2023-02-11T22:50:43.160Z,103022.81
2023-02-11T22:53:11.232Z,103041.66
2023-02-11T22:55:37.982Z,103043.41
2023-02-11T22:58:04.884Z,103044.34
2023-02-11T23:00:37.101Z,103042.53
2023-02-11T23:03:04.192Z,103049.72
2023-02-11T23:05:37.544Z,103049.72
2023-02-11T23:08:04.622Z,103054.22
2023-02-11T23:10:34.557Z,103055.09
2023-02-11T23:13:01.250Z,103064.13
2023-02-11T23:15:27.973Z,103064.22
2023-02-11T23:17:54.623Z,103071.41
2023-02-11T23:20:21.371Z,103073.22
2023-02-11T23:22:48.187Z,103066.97
2023-02-11T23:25:15.518Z,103062.47
2023-02-11T23:27:43.774Z,103058.91
2023-02-11T23:30:11.542Z,103064.28
2023-02-11T23:32:38.549Z,103061.59
2023-02-11T23:35:05.802Z,103066.97
2023-02-11T23:37:32.632Z,103074.19
2023-02-11T23:39:59.332Z,103076.81
2023-02-11T23:42:26.241Z,103072.34
2023-02-11T23:44:54.261Z,103071.47
2023-02-11T23:47:21.066Z,103079.56
2023-02-11T23:49:47.716Z,103086.75
2023-02-11T23:52:14.738Z,103087.63
2023-02-11T23:54:41.553Z,103085.81
2023-02-11T23:57:08.280Z,103090.25
2023-02-11T23:59:35.378Z,103093.88
